SHMÚ vydal meteorologické výstrahy na Ground ice Display warnings

METAR

Aeronautical MET Report METAR

METAR description (Slovak)

19.11.2018 - 17:30 UTC

METAR LZIB 191730Z 06003KT 9999 FEW014 OVC023 03/01 Q1017 NOSIG=
METAR LZKZ 191730Z 36013KT 9999 SCT030 BKN046 03/M03 Q1018=
METAR LZPP 191730Z 15004KT 130V200 9999 OVC030 04/M01 Q1018=
METAR LZSL 191730Z VRB01KT 9999 SCT024 OVC030 02/M00 Q1018=
METAR LZTT 191730Z 03009KT 8000 OVC006 M02/M04 Q1017=
METAR LZZI 191730Z 03004KT 360V070 CAVOK 00/M04 Q1018=

19.11.2018 - 17:00 UTC

METAR LZIB 191700Z 11002KT 9999 -RA FEW014 BKN024 03/01 Q1017 NOSIG=
METAR LZKZ 191700Z 36012KT 9999 BKN032 03/M03 Q1018 NOSIG=
METAR LZPP 191700Z VRB02KT 9999 OVC035 04/M02 Q1017=
METAR LZSL 191700Z 07001KT 9999 FEW026 OVC038 02/00 Q1017=
METAR LZTT 191700Z 04009KT 7000 OVC006 M02/M04 Q1017 NOSIG=
METAR LZZI 191700Z 03004KT CAVOK M00/M04 Q1018=

19.11.2018 - 17:00 UTC

METAR LZMC 191700Z 10002KT 2000 BR SCT006 OVC034 01/00
Q1017=
METAR LZPW 191700Z 01004KT 9999 -DZ FEW015 OVC032
01/M02 Q1018=

 

 

skok na menu ↑


skok na začiatok stránky ↑